sensor_id;sensor_type;location;lat;lon;timestamp;P1;durP1;ratioP1;P2;durP2;ratioP2
11203;SDS011;5659;49.408;11.116;2023-02-26T00:00:36;9.67;;;2.60;;
11203;SDS011;5659;49.408;11.116;2023-02-26T00:03:03;8.37;;;2.47;;
11203;SDS011;5659;49.408;11.116;2023-02-26T00:05:29;7.60;;;2.60;;
11203;SDS011;5659;49.408;11.116;2023-02-26T00:07:55;4.63;;;2.00;;
11203;SDS011;5659;49.408;11.116;2023-02-26T00:10:21;5.93;;;2.53;;
11203;SDS011;5659;49.408;11.116;2023-02-26T00:12:47;4.97;;;2.20;;
11203;SDS011;5659;49.408;11.116;2023-02-26T00:15:13;6.40;;;2.20;;
11203;SDS011;5659;49.408;11.116;2023-02-26T00:17:43;5.27;;;2.50;;
11203;SDS011;5659;49.408;11.116;2023-02-26T00:20:13;6.83;;;2.27;;
11203;SDS011;5659;49.408;11.116;2023-02-26T00:22:41;5.77;;;2.27;;
11203;SDS011;5659;49.408;11.116;2023-02-26T00:25:07;4.20;;;2.20;;
11203;SDS011;5659;49.408;11.116;2023-02-26T00:27:33;5.10;;;2.13;;
11203;SDS011;5659;49.408;11.116;2023-02-26T00:30:00;5.27;;;2.53;;
11203;SDS011;5659;49.408;11.116;2023-02-26T00:32:26;5.73;;;2.63;;
11203;SDS011;5659;49.408;11.116;2023-02-26T00:34:52;6.90;;;2.93;;
11203;SDS011;5659;49.408;11.116;2023-02-26T00:42:32;7.37;;;2.60;;
11203;SDS011;5659;49.408;11.116;2023-02-26T00:44:59;6.30;;;2.77;;
11203;SDS011;5659;49.408;11.116;2023-02-26T00:50:15;6.47;;;2.63;;
11203;SDS011;5659;49.408;11.116;2023-02-26T00:52:50;5.30;;;2.60;;
11203;SDS011;5659;49.408;11.116;2023-02-26T00:55:17;5.87;;;2.60;;
11203;SDS011;5659;49.408;11.116;2023-02-26T00:57:44;5.83;;;3.03;;
11203;SDS011;5659;49.408;11.116;2023-02-26T01:00:10;5.47;;;2.70;;
11203;SDS011;5659;49.408;11.116;2023-02-26T01:02:37;10.37;;;3.10;;
11203;SDS011;5659;49.408;11.116;2023-02-26T01:05:03;7.97;;;3.00;;
11203;SDS011;5659;49.408;11.116;2023-02-26T01:07:31;8.00;;;3.00;;
11203;SDS011;5659;49.408;11.116;2023-02-26T01:10:00;5.83;;;3.00;;
11203;SDS011;5659;49.408;11.116;2023-02-26T01:12:26;7.13;;;3.00;;
11203;SDS011;5659;49.408;11.116;2023-02-26T01:14:52;8.03;;;2.80;;
11203;SDS011;5659;49.408;11.116;2023-02-26T01:20:13;4.67;;;3.00;;
11203;SDS011;5659;49.408;11.116;2023-02-26T01:22:41;7.00;;;3.00;;
11203;SDS011;5659;49.408;11.116;2023-02-26T01:25:11;5.33;;;3.03;;
11203;SDS011;5659;49.408;11.116;2023-02-26T01:27:37;7.63;;;2.83;;
11203;SDS011;5659;49.408;11.116;2023-02-26T01:30:04;4.83;;;3.23;;
11203;SDS011;5659;49.408;11.116;2023-02-26T01:35:19;7.23;;;3.43;;
11203;SDS011;5659;49.408;11.116;2023-02-26T01:43:18;6.27;;;3.13;;
11203;SDS011;5659;49.408;11.116;2023-02-26T01:45:59;8.27;;;3.03;;
11203;SDS011;5659;49.408;11.116;2023-02-26T01:48:38;4.70;;;2.80;;
11203;SDS011;5659;49.408;11.116;2023-02-26T01:51:09;7.33;;;2.73;;
11203;SDS011;5659;49.408;11.116;2023-02-26T01:53:35;5.90;;;2.80;;
11203;SDS011;5659;49.408;11.116;2023-02-26T01:56:05;6.00;;;2.80;;
11203;SDS011;5659;49.408;11.116;2023-02-26T01:58:34;6.23;;;2.63;;
11203;SDS011;5659;49.408;11.116;2023-02-26T02:01:01;6.37;;;2.70;;
11203;SDS011;5659;49.408;11.116;2023-02-26T02:03:28;5.90;;;2.73;;
11203;SDS011;5659;49.408;11.116;2023-02-26T02:05:59;8.43;;;2.90;;
11203;SDS011;5659;49.408;11.116;2023-02-26T02:08:27;13.20;;;2.70;;
11203;SDS011;5659;49.408;11.116;2023-02-26T02:10:53;4.23;;;2.53;;
11203;SDS011;5659;49.408;11.116;2023-02-26T02:21:44;8.13;;;2.77;;
11203;SDS011;5659;49.408;11.116;2023-02-26T02:26:59;3.83;;;2.50;;
11203;SDS011;5659;49.408;11.116;2023-02-26T02:29:42;7.83;;;3.00;;
11203;SDS011;5659;49.408;11.116;2023-02-26T02:32:09;8.40;;;2.93;;
11203;SDS011;5659;49.408;11.116;2023-02-26T02:37:29;8.20;;;2.63;;
11203;SDS011;5659;49.408;11.116;2023-02-26T02:40:01;10.10;;;2.77;;
11203;SDS011;5659;49.408;11.116;2023-02-26T02:44:56;6.93;;;2.50;;
11203;SDS011;5659;49.408;11.116;2023-02-26T02:47:23;7.53;;;3.03;;
11203;SDS011;5659;49.408;11.116;2023-02-26T02:49:50;8.40;;;2.63;;
11203;SDS011;5659;49.408;11.116;2023-02-26T02:52:25;6.80;;;2.90;;
11203;SDS011;5659;49.408;11.116;2023-02-26T02:57:21;5.07;;;2.57;;
11203;SDS011;5659;49.408;11.116;2023-02-26T02:59:50;7.40;;;2.70;;
11203;SDS011;5659;49.408;11.116;2023-02-26T03:04:46;5.60;;;2.50;;
11203;SDS011;5659;49.408;11.116;2023-02-26T03:07:12;6.93;;;2.63;;
11203;SDS011;5659;49.408;11.116;2023-02-26T03:09:38;6.50;;;2.33;;
11203;SDS011;5659;49.408;11.116;2023-02-26T03:12:05;6.30;;;2.30;;
11203;SDS011;5659;49.408;11.116;2023-02-26T03:14:31;4.10;;;1.90;;
11203;SDS011;5659;49.408;11.116;2023-02-26T03:19:37;7.53;;;2.43;;
11203;SDS011;5659;49.408;11.116;2023-02-26T03:22:14;7.87;;;2.60;;
11203;SDS011;5659;49.408;11.116;2023-02-26T03:29:49;10.10;;;2.50;;
11203;SDS011;5659;49.408;11.116;2023-02-26T03:32:38;4.47;;;2.40;;
11203;SDS011;5659;49.408;11.116;2023-02-26T03:35:25;10.03;;;2.80;;
11203;SDS011;5659;49.408;11.116;2023-02-26T03:37:54;4.40;;;2.30;;
11203;SDS011;5659;49.408;11.116;2023-02-26T03:40:26;5.00;;;2.00;;
11203;SDS011;5659;49.408;11.116;2023-02-26T03:42:56;6.93;;;2.00;;
11203;SDS011;5659;49.408;11.116;2023-02-26T03:45:29;10.70;;;2.33;;
11203;SDS011;5659;49.408;11.116;2023-02-26T03:47:56;9.17;;;2.33;;
11203;SDS011;5659;49.408;11.116;2023-02-26T03:50:33;4.33;;;2.07;;
11203;SDS011;5659;49.408;11.116;2023-02-26T03:53:01;3.77;;;2.17;;
11203;SDS011;5659;49.408;11.116;2023-02-26T03:55:30;5.07;;;2.10;;
11203;SDS011;5659;49.408;11.116;2023-02-26T03:57:57;7.97;;;2.43;;
11203;SDS011;5659;49.408;11.116;2023-02-26T04:00:24;4.23;;;2.20;;
11203;SDS011;5659;49.408;11.116;2023-02-26T04:05:49;6.43;;;2.40;;
11203;SDS011;5659;49.408;11.116;2023-02-26T04:08:17;3.90;;;2.30;;
11203;SDS011;5659;49.408;11.116;2023-02-26T04:10:44;3.83;;;2.20;;
11203;SDS011;5659;49.408;11.116;2023-02-26T04:13:12;5.40;;;2.30;;
11203;SDS011;5659;49.408;11.116;2023-02-26T04:15:38;4.90;;;2.33;;
11203;SDS011;5659;49.408;11.116;2023-02-26T04:18:04;6.63;;;2.47;;
11203;SDS011;5659;49.408;11.116;2023-02-26T04:20:30;5.93;;;2.40;;
11203;SDS011;5659;49.408;11.116;2023-02-26T04:22:56;6.57;;;2.40;;
11203;SDS011;5659;49.408;11.116;2023-02-26T04:25:22;5.07;;;2.67;;
11203;SDS011;5659;49.408;11.116;2023-02-26T04:27:48;7.03;;;2.07;;
11203;SDS011;5659;49.408;11.116;2023-02-26T04:30:14;4.33;;;2.00;;
11203;SDS011;5659;49.408;11.116;2023-02-26T04:32:40;17.60;;;2.53;;
11203;SDS011;5659;49.408;11.116;2023-02-26T04:35:06;4.30;;;1.80;;
11203;SDS011;5659;49.408;11.116;2023-02-26T04:37:32;7.07;;;2.57;;
11203;SDS011;5659;49.408;11.116;2023-02-26T04:39:58;6.57;;;2.40;;
11203;SDS011;5659;49.408;11.116;2023-02-26T04:42:23;4.47;;;2.03;;
11203;SDS011;5659;49.408;11.116;2023-02-26T04:44:49;5.50;;;2.10;;
11203;SDS011;5659;49.408;11.116;2023-02-26T04:47:15;3.93;;;2.30;;
11203;SDS011;5659;49.408;11.116;2023-02-26T04:49:41;2.67;;;1.90;;
11203;SDS011;5659;49.408;11.116;2023-02-26T04:52:07;3.67;;;2.00;;
11203;SDS011;5659;49.408;11.116;2023-02-26T04:54:33;3.40;;;2.03;;
11203;SDS011;5659;49.408;11.116;2023-02-26T04:56:59;4.40;;;1.80;;
11203;SDS011;5659;49.408;11.116;2023-02-26T04:59:25;7.17;;;2.33;;
11203;SDS011;5659;49.408;11.116;2023-02-26T05:01:51;3.70;;;2.10;;
11203;SDS011;5659;49.408;11.116;2023-02-26T05:04:17;3.80;;;1.80;;
11203;SDS011;5659;49.408;11.116;2023-02-26T05:06:43;5.70;;;2.00;;
11203;SDS011;5659;49.408;11.116;2023-02-26T05:09:09;4.87;;;2.23;;
11203;SDS011;5659;49.408;11.116;2023-02-26T05:11:35;5.60;;;2.20;;
11203;SDS011;5659;49.408;11.116;2023-02-26T05:14:01;5.57;;;2.00;;
11203;SDS011;5659;49.408;11.116;2023-02-26T05:16:27;3.90;;;2.30;;
11203;SDS011;5659;49.408;11.116;2023-02-26T05:18:53;8.07;;;2.23;;
11203;SDS011;5659;49.408;11.116;2023-02-26T05:21:19;3.30;;;1.90;;
11203;SDS011;5659;49.408;11.116;2023-02-26T05:23:45;5.17;;;1.90;;
11203;SDS011;5659;49.408;11.116;2023-02-26T05:26:11;4.30;;;1.97;;
11203;SDS011;5659;49.408;11.116;2023-02-26T05:28:37;5.70;;;2.10;;
11203;SDS011;5659;49.408;11.116;2023-02-26T05:31:03;4.13;;;2.00;;
11203;SDS011;5659;49.408;11.116;2023-02-26T05:33:30;4.20;;;1.77;;
11203;SDS011;5659;49.408;11.116;2023-02-26T05:35:56;6.50;;;2.43;;
11203;SDS011;5659;49.408;11.116;2023-02-26T05:38:22;3.37;;;1.90;;
11203;SDS011;5659;49.408;11.116;2023-02-26T05:40:48;5.27;;;2.00;;
11203;SDS011;5659;49.408;11.116;2023-02-26T05:43:14;2.60;;;1.70;;
11203;SDS011;5659;49.408;11.116;2023-02-26T05:45:40;10.23;;;2.50;;
11203;SDS011;5659;49.408;11.116;2023-02-26T05:48:06;11.10;;;2.00;;
11203;SDS011;5659;49.408;11.116;2023-02-26T05:50:35;3.23;;;1.90;;
11203;SDS011;5659;49.408;11.116;2023-02-26T05:53:00;3.93;;;1.90;;
11203;SDS011;5659;49.408;11.116;2023-02-26T05:55:26;5.03;;;2.20;;
11203;SDS011;5659;49.408;11.116;2023-02-26T05:57:52;7.43;;;2.10;;
11203;SDS011;5659;49.408;11.116;2023-02-26T06:00:18;3.40;;;1.93;;
11203;SDS011;5659;49.408;11.116;2023-02-26T06:02:44;6.20;;;3.30;;
11203;SDS011;5659;49.408;11.116;2023-02-26T06:05:10;3.93;;;2.03;;
11203;SDS011;5659;49.408;11.116;2023-02-26T06:07:36;3.47;;;2.00;;
11203;SDS011;5659;49.408;11.116;2023-02-26T06:10:02;5.00;;;1.87;;
11203;SDS011;5659;49.408;11.116;2023-02-26T06:12:28;10.37;;;2.03;;
11203;SDS011;5659;49.408;11.116;2023-02-26T06:14:54;3.40;;;2.00;;
11203;SDS011;5659;49.408;11.116;2023-02-26T06:17:20;2.57;;;1.97;;
11203;SDS011;5659;49.408;11.116;2023-02-26T06:19:46;3.37;;;2.00;;
11203;SDS011;5659;49.408;11.116;2023-02-26T06:22:12;5.97;;;2.23;;
11203;SDS011;5659;49.408;11.116;2023-02-26T06:24:38;4.67;;;2.30;;
11203;SDS011;5659;49.408;11.116;2023-02-26T06:27:04;5.77;;;2.27;;
11203;SDS011;5659;49.408;11.116;2023-02-26T06:29:30;2.97;;;1.90;;
11203;SDS011;5659;49.408;11.116;2023-02-26T06:31:56;7.10;;;2.37;;
11203;SDS011;5659;49.408;11.116;2023-02-26T06:34:22;8.67;;;2.43;;
11203;SDS011;5659;49.408;11.116;2023-02-26T06:36:48;7.17;;;2.00;;
11203;SDS011;5659;49.408;11.116;2023-02-26T06:39:14;7.17;;;2.33;;
11203;SDS011;5659;49.408;11.116;2023-02-26T06:41:40;4.33;;;2.40;;
11203;SDS011;5659;49.408;11.116;2023-02-26T06:44:06;7.73;;;2.47;;
11203;SDS011;5659;49.408;11.116;2023-02-26T06:46:32;3.70;;;2.07;;
11203;SDS011;5659;49.408;11.116;2023-02-26T06:48:58;3.67;;;2.00;;
11203;SDS011;5659;49.408;11.116;2023-02-26T06:51:24;8.63;;;2.40;;
11203;SDS011;5659;49.408;11.116;2023-02-26T06:53:50;3.00;;;1.97;;
11203;SDS011;5659;49.408;11.116;2023-02-26T06:56:16;5.53;;;2.00;;
11203;SDS011;5659;49.408;11.116;2023-02-26T06:58:42;4.83;;;1.90;;
11203;SDS011;5659;49.408;11.116;2023-02-26T07:01:08;2.77;;;1.90;;
11203;SDS011;5659;49.408;11.116;2023-02-26T07:03:34;7.13;;;2.33;;
11203;SDS011;5659;49.408;11.116;2023-02-26T07:06:00;7.67;;;2.20;;
11203;SDS011;5659;49.408;11.116;2023-02-26T07:08:26;5.23;;;2.33;;
11203;SDS011;5659;49.408;11.116;2023-02-26T07:10:52;5.50;;;2.27;;
11203;SDS011;5659;49.408;11.116;2023-02-26T07:13:18;4.23;;;2.23;;
11203;SDS011;5659;49.408;11.116;2023-02-26T07:15:44;3.87;;;2.17;;
11203;SDS011;5659;49.408;11.116;2023-02-26T07:18:10;7.17;;;2.70;;
11203;SDS011;5659;49.408;11.116;2023-02-26T07:20:36;4.50;;;2.40;;
11203;SDS011;5659;49.408;11.116;2023-02-26T07:23:02;9.17;;;2.47;;
11203;SDS011;5659;49.408;11.116;2023-02-26T07:25:28;4.03;;;2.30;;
11203;SDS011;5659;49.408;11.116;2023-02-26T07:27:54;4.97;;;2.20;;
11203;SDS011;5659;49.408;11.116;2023-02-26T07:30:20;3.30;;;2.07;;
11203;SDS011;5659;49.408;11.116;2023-02-26T07:32:46;5.93;;;2.90;;
11203;SDS011;5659;49.408;11.116;2023-02-26T07:35:12;6.87;;;2.90;;
11203;SDS011;5659;49.408;11.116;2023-02-26T07:37:38;5.47;;;2.40;;
11203;SDS011;5659;49.408;11.116;2023-02-26T07:40:04;5.40;;;2.20;;
11203;SDS011;5659;49.408;11.116;2023-02-26T07:42:30;5.17;;;2.40;;
11203;SDS011;5659;49.408;11.116;2023-02-26T07:44:56;6.83;;;2.50;;
11203;SDS011;5659;49.408;11.116;2023-02-26T07:47:23;8.77;;;2.77;;
11203;SDS011;5659;49.408;11.116;2023-02-26T07:49:49;3.67;;;2.33;;
11203;SDS011;5659;49.408;11.116;2023-02-26T07:52:15;2.23;;;2.03;;
11203;SDS011;5659;49.408;11.116;2023-02-26T07:54:41;4.70;;;2.23;;
11203;SDS011;5659;49.408;11.116;2023-02-26T07:57:07;4.57;;;2.40;;
11203;SDS011;5659;49.408;11.116;2023-02-26T07:59:33;5.17;;;2.87;;
11203;SDS011;5659;49.408;11.116;2023-02-26T08:01:59;3.47;;;2.40;;
11203;SDS011;5659;49.408;11.116;2023-02-26T08:04:25;4.87;;;2.43;;
11203;SDS011;5659;49.408;11.116;2023-02-26T08:06:54;4.53;;;2.40;;
11203;SDS011;5659;49.408;11.116;2023-02-26T08:09:21;3.93;;;2.20;;
11203;SDS011;5659;49.408;11.116;2023-02-26T08:11:47;5.63;;;2.50;;
11203;SDS011;5659;49.408;11.116;2023-02-26T08:14:13;7.43;;;2.70;;
11203;SDS011;5659;49.408;11.116;2023-02-26T08:16:39;5.43;;;2.90;;
11203;SDS011;5659;49.408;11.116;2023-02-26T08:19:06;4.13;;;2.20;;
11203;SDS011;5659;49.408;11.116;2023-02-26T08:21:32;3.80;;;2.57;;
11203;SDS011;5659;49.408;11.116;2023-02-26T08:23:58;3.97;;;2.40;;
11203;SDS011;5659;49.408;11.116;2023-02-26T08:26:24;4.57;;;2.60;;
11203;SDS011;5659;49.408;11.116;2023-02-26T08:28:51;2.83;;;2.40;;
11203;SDS011;5659;49.408;11.116;2023-02-26T08:31:17;4.90;;;2.50;;
11203;SDS011;5659;49.408;11.116;2023-02-26T08:33:43;4.23;;;2.50;;
11203;SDS011;5659;49.408;11.116;2023-02-26T08:36:09;4.13;;;2.83;;
11203;SDS011;5659;49.408;11.116;2023-02-26T08:38:35;3.10;;;2.33;;
11203;SDS011;5659;49.408;11.116;2023-02-26T08:41:01;3.40;;;2.50;;
11203;SDS011;5659;49.408;11.116;2023-02-26T08:43:27;5.53;;;2.30;;
11203;SDS011;5659;49.408;11.116;2023-02-26T08:45:54;3.90;;;2.47;;
11203;SDS011;5659;49.408;11.116;2023-02-26T08:48:20;4.93;;;2.10;;
11203;SDS011;5659;49.408;11.116;2023-02-26T08:50:47;3.17;;;2.30;;
11203;SDS011;5659;49.408;11.116;2023-02-26T08:53:13;3.57;;;2.10;;
11203;SDS011;5659;49.408;11.116;2023-02-26T08:55:39;4.03;;;1.90;;
11203;SDS011;5659;49.408;11.116;2023-02-26T08:58:05;1.80;;;1.70;;
11203;SDS011;5659;49.408;11.116;2023-02-26T09:00:31;3.40;;;1.80;;
11203;SDS011;5659;49.408;11.116;2023-02-26T09:02:57;4.03;;;1.90;;
11203;SDS011;5659;49.408;11.116;2023-02-26T09:05:23;2.20;;;1.93;;
11203;SDS011;5659;49.408;11.116;2023-02-26T09:07:50;1.93;;;1.63;;
11203;SDS011;5659;49.408;11.116;2023-02-26T09:10:16;1.63;;;1.47;;
11203;SDS011;5659;49.408;11.116;2023-02-26T09:12:42;2.07;;;1.57;;
11203;SDS011;5659;49.408;11.116;2023-02-26T09:15:09;2.30;;;1.73;;
11203;SDS011;5659;49.408;11.116;2023-02-26T09:17:36;1.60;;;1.50;;
11203;SDS011;5659;49.408;11.116;2023-02-26T09:20:03;2.93;;;1.50;;
11203;SDS011;5659;49.408;11.116;2023-02-26T09:22:29;1.93;;;1.73;;
11203;SDS011;5659;49.408;11.116;2023-02-26T09:24:55;3.67;;;1.40;;
11203;SDS011;5659;49.408;11.116;2023-02-26T09:27:21;1.70;;;1.60;;
11203;SDS011;5659;49.408;11.116;2023-02-26T09:29:47;1.40;;;1.30;;
11203;SDS011;5659;49.408;11.116;2023-02-26T09:32:13;3.10;;;1.40;;
11203;SDS011;5659;49.408;11.116;2023-02-26T09:34:39;1.50;;;1.40;;
11203;SDS011;5659;49.408;11.116;2023-02-26T09:37:06;1.50;;;1.40;;
11203;SDS011;5659;49.408;11.116;2023-02-26T09:39:32;2.10;;;1.50;;
11203;SDS011;5659;49.408;11.116;2023-02-26T09:41:59;1.30;;;1.20;;
11203;SDS011;5659;49.408;11.116;2023-02-26T09:44:28;1.40;;;1.13;;
11203;SDS011;5659;49.408;11.116;2023-02-26T09:47:04;1.20;;;1.10;;
11203;SDS011;5659;49.408;11.116;2023-02-26T09:54:42;1.10;;;1.10;;
11203;SDS011;5659;49.408;11.116;2023-02-26T09:57:09;1.60;;;1.10;;
11203;SDS011;5659;49.408;11.116;2023-02-26T09:59:37;1.10;;;1.10;;
11203;SDS011;5659;49.408;11.116;2023-02-26T10:02:28;1.10;;;1.00;;
11203;SDS011;5659;49.408;11.116;2023-02-26T10:12:39;1.00;;;1.00;;
11203;SDS011;5659;49.408;11.116;2023-02-26T10:15:09;1.00;;;1.00;;
11203;SDS011;5659;49.408;11.116;2023-02-26T10:20:26;1.13;;;1.00;;
11203;SDS011;5659;49.408;11.116;2023-02-26T10:25:28;1.20;;;1.10;;
11203;SDS011;5659;49.408;11.116;2023-02-26T10:27:58;1.20;;;1.10;;
11203;SDS011;5659;49.408;11.116;2023-02-26T10:30:32;1.37;;;1.27;;
11203;SDS011;5659;49.408;11.116;2023-02-26T10:35:51;2.10;;;1.10;;
11203;SDS011;5659;49.408;11.116;2023-02-26T10:38:19;1.60;;;1.30;;
11203;SDS011;5659;49.408;11.116;2023-02-26T10:51:15;1.20;;;1.10;;
11203;SDS011;5659;49.408;11.116;2023-02-26T10:53:46;0.90;;;0.90;;
11203;SDS011;5659;49.408;11.116;2023-02-26T10:56:15;1.65;;;0.93;;
11203;SDS011;5659;49.408;11.116;2023-02-26T10:58:41;1.60;;;1.00;;
11203;SDS011;5659;49.408;11.116;2023-02-26T11:01:18;2.17;;;1.00;;
11203;SDS011;5659;49.408;11.116;2023-02-26T11:03:45;1.30;;;0.83;;
11203;SDS011;5659;49.408;11.116;2023-02-26T11:06:16;2.50;;;1.00;;
11203;SDS011;5659;49.408;11.116;2023-02-26T11:08:44;0.98;;;0.98;;
11203;SDS011;5659;49.408;11.116;2023-02-26T11:11:34;1.00;;;1.00;;
11203;SDS011;5659;49.408;11.116;2023-02-26T11:13:57;0.80;;;0.80;;
11203;SDS011;5659;49.408;11.116;2023-02-26T11:16:23;1.05;;;0.95;;
11203;SDS011;5659;49.408;11.116;2023-02-26T11:18:52;0.70;;;0.70;;
11203;SDS011;5659;49.408;11.116;2023-02-26T11:21:24;1.00;;;1.00;;
11203;SDS011;5659;49.408;11.116;2023-02-26T11:23:52;1.67;;;1.00;;
11203;SDS011;5659;49.408;11.116;2023-02-26T11:26:20;1.10;;;1.00;;
11203;SDS011;5659;49.408;11.116;2023-02-26T11:28:53;1.00;;;1.00;;
11203;SDS011;5659;49.408;11.116;2023-02-26T11:31:21;1.07;;;1.03;;
11203;SDS011;5659;49.408;11.116;2023-02-26T11:33:48;1.70;;;1.60;;
11203;SDS011;5659;49.408;11.116;2023-02-26T11:36:16;1.97;;;1.40;;
11203;SDS011;5659;49.408;11.116;2023-02-26T11:38:44;2.27;;;1.37;;
11203;SDS011;5659;49.408;11.116;2023-02-26T11:41:11;1.30;;;1.20;;
11203;SDS011;5659;49.408;11.116;2023-02-26T11:43:41;1.00;;;1.00;;
11203;SDS011;5659;49.408;11.116;2023-02-26T11:46:08;1.30;;;1.20;;
11203;SDS011;5659;49.408;11.116;2023-02-26T11:51:03;1.20;;;1.13;;
11203;SDS011;5659;49.408;11.116;2023-02-26T11:53:34;1.07;;;1.07;;
11203;SDS011;5659;49.408;11.116;2023-02-26T11:56:11;2.10;;;1.20;;
11203;SDS011;5659;49.408;11.116;2023-02-26T11:58:38;1.90;;;1.20;;
11203;SDS011;5659;49.408;11.116;2023-02-26T12:01:06;3.37;;;1.20;;
11203;SDS011;5659;49.408;11.116;2023-02-26T12:03:35;1.70;;;1.10;;
11203;SDS011;5659;49.408;11.116;2023-02-26T12:06:04;2.63;;;1.10;;
11203;SDS011;5659;49.408;11.116;2023-02-26T12:08:32;2.28;;;1.10;;
11203;SDS011;5659;49.408;11.116;2023-02-26T12:19:21;1.30;;;0.98;;
11203;SDS011;5659;49.408;11.116;2023-02-26T12:27:30;1.42;;;1.08;;
11203;SDS011;5659;49.408;11.116;2023-02-26T12:38:25;1.20;;;1.10;;
11203;SDS011;5659;49.408;11.116;2023-02-26T12:40:58;0.93;;;0.93;;
11203;SDS011;5659;49.408;11.116;2023-02-26T12:43:34;3.77;;;0.90;;
11203;SDS011;5659;49.408;11.116;2023-02-26T12:46:18;1.90;;;1.30;;
11203;SDS011;5659;49.408;11.116;2023-02-26T12:48:58;1.40;;;1.10;;
11203;SDS011;5659;49.408;11.116;2023-02-26T12:51:41;1.43;;;1.07;;
11203;SDS011;5659;49.408;11.116;2023-02-26T13:02:20;1.93;;;1.10;;
11203;SDS011;5659;49.408;11.116;2023-02-26T13:05:10;1.40;;;1.30;;
11203;SDS011;5659;49.408;11.116;2023-02-26T13:13:02;2.77;;;1.53;;
11203;SDS011;5659;49.408;11.116;2023-02-26T13:18:37;4.70;;;1.30;;
11203;SDS011;5659;49.408;11.116;2023-02-26T13:21:05;1.47;;;1.20;;
11203;SDS011;5659;49.408;11.116;2023-02-26T13:23:51;2.53;;;1.30;;
11203;SDS011;5659;49.408;11.116;2023-02-26T13:26:18;1.77;;;1.20;;
11203;SDS011;5659;49.408;11.116;2023-02-26T13:34:01;1.80;;;1.10;;
11203;SDS011;5659;49.408;11.116;2023-02-26T13:36:29;1.10;;;0.90;;
11203;SDS011;5659;49.408;11.116;2023-02-26T13:38:59;1.42;;;1.13;;
11203;SDS011;5659;49.408;11.116;2023-02-26T13:44:16;2.50;;;1.30;;
11203;SDS011;5659;49.408;11.116;2023-02-26T13:46:50;1.38;;;1.20;;
11203;SDS011;5659;49.408;11.116;2023-02-26T13:49:29;2.17;;;1.30;;
11203;SDS011;5659;49.408;11.116;2023-02-26T13:51:57;1.33;;;1.20;;
11203;SDS011;5659;49.408;11.116;2023-02-26T13:57:22;3.53;;;1.20;;
11203;SDS011;5659;49.408;11.116;2023-02-26T14:00:00;1.87;;;1.20;;
11203;SDS011;5659;49.408;11.116;2023-02-26T14:02:30;1.02;;;0.93;;
11203;SDS011;5659;49.408;11.116;2023-02-26T14:04:59;1.83;;;1.23;;
11203;SDS011;5659;49.408;11.116;2023-02-26T14:07:45;1.75;;;1.00;;
11203;SDS011;5659;49.408;11.116;2023-02-26T14:10:22;3.15;;;1.20;;
11203;SDS011;5659;49.408;11.116;2023-02-26T14:13:00;1.20;;;0.98;;
11203;SDS011;5659;49.408;11.116;2023-02-26T14:15:30;1.45;;;1.00;;
11203;SDS011;5659;49.408;11.116;2023-02-26T14:18:00;1.60;;;1.10;;
11203;SDS011;5659;49.408;11.116;2023-02-26T14:20:27;1.80;;;1.37;;
11203;SDS011;5659;49.408;11.116;2023-02-26T14:25:39;1.30;;;1.20;;
11203;SDS011;5659;49.408;11.116;2023-02-26T14:30:51;2.07;;;1.20;;
11203;SDS011;5659;49.408;11.116;2023-02-26T14:33:18;1.37;;;1.20;;
11203;SDS011;5659;49.408;11.116;2023-02-26T14:35:51;5.23;;;1.13;;
11203;SDS011;5659;49.408;11.116;2023-02-26T14:38:25;0.90;;;0.90;;
11203;SDS011;5659;49.408;11.116;2023-02-26T14:43:48;1.63;;;1.10;;
11203;SDS011;5659;49.408;11.116;2023-02-26T14:46:10;1.17;;;1.02;;
11203;SDS011;5659;49.408;11.116;2023-02-26T14:48:37;1.70;;;1.10;;
11203;SDS011;5659;49.408;11.116;2023-02-26T14:51:16;1.60;;;1.08;;
11203;SDS011;5659;49.408;11.116;2023-02-26T14:54:06;1.75;;;1.13;;
11203;SDS011;5659;49.408;11.116;2023-02-26T14:56:44;1.95;;;1.02;;
11203;SDS011;5659;49.408;11.116;2023-02-26T14:59:18;4.00;;;1.15;;
11203;SDS011;5659;49.408;11.116;2023-02-26T15:01:48;1.60;;;1.07;;
11203;SDS011;5659;49.408;11.116;2023-02-26T15:09:33;1.70;;;1.10;;
11203;SDS011;5659;49.408;11.116;2023-02-26T15:12:06;1.90;;;1.27;;
11203;SDS011;5659;49.408;11.116;2023-02-26T15:25:10;1.63;;;1.20;;
11203;SDS011;5659;49.408;11.116;2023-02-26T15:27:39;2.40;;;1.10;;
11203;SDS011;5659;49.408;11.116;2023-02-26T15:30:06;1.47;;;1.10;;
11203;SDS011;5659;49.408;11.116;2023-02-26T15:32:35;1.93;;;1.23;;
11203;SDS011;5659;49.408;11.116;2023-02-26T15:37:42;1.60;;;1.37;;
11203;SDS011;5659;49.408;11.116;2023-02-26T15:40:08;2.03;;;1.27;;
11203;SDS011;5659;49.408;11.116;2023-02-26T15:42:35;1.90;;;1.20;;
11203;SDS011;5659;49.408;11.116;2023-02-26T15:45:03;1.63;;;1.20;;
11203;SDS011;5659;49.408;11.116;2023-02-26T15:47:30;2.07;;;1.30;;
11203;SDS011;5659;49.408;11.116;2023-02-26T15:49:57;1.87;;;1.30;;
11203;SDS011;5659;49.408;11.116;2023-02-26T15:52:24;2.83;;;1.47;;
11203;SDS011;5659;49.408;11.116;2023-02-26T15:54:55;3.03;;;1.40;;
11203;SDS011;5659;49.408;11.116;2023-02-26T15:57:21;1.50;;;1.40;;
11203;SDS011;5659;49.408;11.116;2023-02-26T15:59:49;2.47;;;1.30;;
11203;SDS011;5659;49.408;11.116;2023-02-26T16:02:26;1.77;;;1.30;;
11203;SDS011;5659;49.408;11.116;2023-02-26T16:04:52;1.70;;;1.30;;
11203;SDS011;5659;49.408;11.116;2023-02-26T16:07:18;1.43;;;1.20;;
11203;SDS011;5659;49.408;11.116;2023-02-26T16:09:45;1.40;;;1.30;;
11203;SDS011;5659;49.408;11.116;2023-02-26T16:12:13;2.90;;;1.40;;
11203;SDS011;5659;49.408;11.116;2023-02-26T16:14:42;1.67;;;1.37;;
11203;SDS011;5659;49.408;11.116;2023-02-26T16:17:11;1.83;;;1.20;;
11203;SDS011;5659;49.408;11.116;2023-02-26T16:19:42;1.70;;;1.20;;
11203;SDS011;5659;49.408;11.116;2023-02-26T16:24:41;1.30;;;1.20;;
11203;SDS011;5659;49.408;11.116;2023-02-26T16:27:08;1.30;;;1.20;;
11203;SDS011;5659;49.408;11.116;2023-02-26T16:29:39;1.53;;;1.40;;
11203;SDS011;5659;49.408;11.116;2023-02-26T16:32:05;2.90;;;1.40;;
11203;SDS011;5659;49.408;11.116;2023-02-26T16:34:38;5.50;;;1.60;;
11203;SDS011;5659;49.408;11.116;2023-02-26T16:39:43;1.27;;;1.10;;
11203;SDS011;5659;49.408;11.116;2023-02-26T16:42:13;2.30;;;1.30;;
11203;SDS011;5659;49.408;11.116;2023-02-26T16:44:44;1.60;;;1.50;;
11203;SDS011;5659;49.408;11.116;2023-02-26T16:47:11;2.73;;;1.40;;
11203;SDS011;5659;49.408;11.116;2023-02-26T16:49:38;2.73;;;1.40;;
11203;SDS011;5659;49.408;11.116;2023-02-26T16:52:05;1.97;;;1.50;;
11203;SDS011;5659;49.408;11.116;2023-02-26T16:54:32;1.63;;;1.20;;
11203;SDS011;5659;49.408;11.116;2023-02-26T16:57:02;2.07;;;1.30;;
11203;SDS011;5659;49.408;11.116;2023-02-26T16:59:29;4.00;;;1.63;;
11203;SDS011;5659;49.408;11.116;2023-02-26T17:02:17;3.93;;;1.63;;
11203;SDS011;5659;49.408;11.116;2023-02-26T17:04:42;1.87;;;1.40;;
11203;SDS011;5659;49.408;11.116;2023-02-26T17:07:14;2.47;;;1.63;;
11203;SDS011;5659;49.408;11.116;2023-02-26T17:09:43;2.73;;;1.60;;
11203;SDS011;5659;49.408;11.116;2023-02-26T17:12:11;3.03;;;1.50;;
11203;SDS011;5659;49.408;11.116;2023-02-26T17:14:38;2.40;;;1.53;;
11203;SDS011;5659;49.408;11.116;2023-02-26T17:17:05;2.77;;;1.90;;
11203;SDS011;5659;49.408;11.116;2023-02-26T17:19:32;2.90;;;1.90;;
11203;SDS011;5659;49.408;11.116;2023-02-26T17:21:58;1.87;;;1.43;;
11203;SDS011;5659;49.408;11.116;2023-02-26T17:24:29;2.20;;;1.50;;
11203;SDS011;5659;49.408;11.116;2023-02-26T17:26:55;2.00;;;1.50;;
11203;SDS011;5659;49.408;11.116;2023-02-26T17:29:44;1.67;;;1.50;;
11203;SDS011;5659;49.408;11.116;2023-02-26T17:32:11;4.90;;;1.90;;
11203;SDS011;5659;49.408;11.116;2023-02-26T17:34:37;2.23;;;1.50;;
11203;SDS011;5659;49.408;11.116;2023-02-26T17:37:03;5.77;;;2.00;;
11203;SDS011;5659;49.408;11.116;2023-02-26T17:39:31;2.37;;;1.80;;
11203;SDS011;5659;49.408;11.116;2023-02-26T17:41:58;1.87;;;1.53;;